sensor_id;sensor_type;location;lat;lon;timestamp;P1;durP1;ratioP1;P2;durP2;ratioP2
5277;SDS011;2662;51.194;6.614;2022-10-16T00:02:11;2.67;;;1.90;;
5277;SDS011;2662;51.194;6.614;2022-10-16T00:04:38;1.27;;;1.13;;
5277;SDS011;2662;51.194;6.614;2022-10-16T00:07:05;2.40;;;1.63;;
5277;SDS011;2662;51.194;6.614;2022-10-16T00:09:31;3.20;;;1.43;;
5277;SDS011;2662;51.194;6.614;2022-10-16T00:11:59;3.90;;;1.10;;
5277;SDS011;2662;51.194;6.614;2022-10-16T00:14:28;1.57;;;1.10;;
5277;SDS011;2662;51.194;6.614;2022-10-16T00:16:55;2.60;;;1.50;;
5277;SDS011;2662;51.194;6.614;2022-10-16T00:19:22;4.43;;;1.80;;
5277;SDS011;2662;51.194;6.614;2022-10-16T00:21:49;6.23;;;1.43;;
5277;SDS011;2662;51.194;6.614;2022-10-16T00:24:16;8.53;;;1.10;;
5277;SDS011;2662;51.194;6.614;2022-10-16T00:26:42;5.60;;;1.43;;
5277;SDS011;2662;51.194;6.614;2022-10-16T00:29:10;11.17;;;1.20;;
5277;SDS011;2662;51.194;6.614;2022-10-16T00:31:37;3.10;;;1.23;;
5277;SDS011;2662;51.194;6.614;2022-10-16T00:34:04;1.63;;;1.20;;
5277;SDS011;2662;51.194;6.614;2022-10-16T00:36:30;3.57;;;1.30;;
5277;SDS011;2662;51.194;6.614;2022-10-16T00:38:57;1.47;;;1.37;;
5277;SDS011;2662;51.194;6.614;2022-10-16T00:41:26;2.60;;;1.20;;
5277;SDS011;2662;51.194;6.614;2022-10-16T00:43:54;1.73;;;1.17;;
5277;SDS011;2662;51.194;6.614;2022-10-16T00:46:24;7.80;;;1.43;;
5277;SDS011;2662;51.194;6.614;2022-10-16T00:48:56;6.90;;;1.10;;
5277;SDS011;2662;51.194;6.614;2022-10-16T00:51:28;6.53;;;1.00;;
5277;SDS011;2662;51.194;6.614;2022-10-16T00:53:59;1.70;;;1.20;;
5277;SDS011;2662;51.194;6.614;2022-10-16T00:56:26;5.53;;;1.30;;
5277;SDS011;2662;51.194;6.614;2022-10-16T00:58:53;2.00;;;1.00;;
5277;SDS011;2662;51.194;6.614;2022-10-16T01:01:20;2.80;;;1.43;;
5277;SDS011;2662;51.194;6.614;2022-10-16T01:03:48;1.07;;;0.90;;
5277;SDS011;2662;51.194;6.614;2022-10-16T01:06:19;1.73;;;1.20;;
5277;SDS011;2662;51.194;6.614;2022-10-16T01:08:53;4.20;;;1.13;;
5277;SDS011;2662;51.194;6.614;2022-10-16T01:11:33;4.93;;;1.30;;
5277;SDS011;2662;51.194;6.614;2022-10-16T01:14:06;8.07;;;1.30;;
5277;SDS011;2662;51.194;6.614;2022-10-16T01:16:42;2.40;;;1.10;;
5277;SDS011;2662;51.194;6.614;2022-10-16T01:19:16;1.93;;;1.10;;
5277;SDS011;2662;51.194;6.614;2022-10-16T01:21:51;5.13;;;1.27;;
5277;SDS011;2662;51.194;6.614;2022-10-16T01:24:25;5.70;;;1.20;;
5277;SDS011;2662;51.194;6.614;2022-10-16T01:27:12;2.90;;;0.93;;
5277;SDS011;2662;51.194;6.614;2022-10-16T01:29:42;2.50;;;1.10;;
5277;SDS011;2662;51.194;6.614;2022-10-16T01:32:16;3.13;;;0.90;;
5277;SDS011;2662;51.194;6.614;2022-10-16T01:34:48;2.70;;;0.97;;
5277;SDS011;2662;51.194;6.614;2022-10-16T01:37:21;0.93;;;0.87;;
5277;SDS011;2662;51.194;6.614;2022-10-16T01:39:55;3.37;;;0.90;;
5277;SDS011;2662;51.194;6.614;2022-10-16T01:42:28;1.83;;;0.90;;
5277;SDS011;2662;51.194;6.614;2022-10-16T01:45:00;2.27;;;1.07;;
5277;SDS011;2662;51.194;6.614;2022-10-16T01:47:28;1.67;;;1.00;;
5277;SDS011;2662;51.194;6.614;2022-10-16T01:49:57;4.87;;;1.30;;
5277;SDS011;2662;51.194;6.614;2022-10-16T01:52:26;4.00;;;1.47;;
5277;SDS011;2662;51.194;6.614;2022-10-16T01:54:55;1.27;;;1.17;;
5277;SDS011;2662;51.194;6.614;2022-10-16T01:57:24;8.07;;;1.40;;
5277;SDS011;2662;51.194;6.614;2022-10-16T01:59:54;1.27;;;1.17;;
5277;SDS011;2662;51.194;6.614;2022-10-16T02:02:22;1.30;;;1.20;;
5277;SDS011;2662;51.194;6.614;2022-10-16T02:04:56;2.93;;;1.00;;
5277;SDS011;2662;51.194;6.614;2022-10-16T02:07:27;3.30;;;1.20;;
5277;SDS011;2662;51.194;6.614;2022-10-16T02:09:54;1.70;;;1.13;;
5277;SDS011;2662;51.194;6.614;2022-10-16T02:12:22;7.17;;;0.97;;
5277;SDS011;2662;51.194;6.614;2022-10-16T02:14:54;1.57;;;1.03;;
5277;SDS011;2662;51.194;6.614;2022-10-16T02:17:21;2.60;;;0.97;;
5277;SDS011;2662;51.194;6.614;2022-10-16T02:19:49;3.23;;;0.73;;
5277;SDS011;2662;51.194;6.614;2022-10-16T02:22:19;2.20;;;1.07;;
5277;SDS011;2662;51.194;6.614;2022-10-16T02:24:50;1.57;;;1.10;;
5277;SDS011;2662;51.194;6.614;2022-10-16T02:27:22;4.40;;;1.10;;
5277;SDS011;2662;51.194;6.614;2022-10-16T02:29:55;2.60;;;1.17;;
5277;SDS011;2662;51.194;6.614;2022-10-16T02:32:32;1.43;;;1.10;;
5277;SDS011;2662;51.194;6.614;2022-10-16T02:35:01;1.07;;;0.83;;
5277;SDS011;2662;51.194;6.614;2022-10-16T02:37:30;3.27;;;1.00;;
5277;SDS011;2662;51.194;6.614;2022-10-16T02:39:58;4.30;;;0.93;;
5277;SDS011;2662;51.194;6.614;2022-10-16T02:42:27;8.00;;;1.00;;
5277;SDS011;2662;51.194;6.614;2022-10-16T02:44:57;1.10;;;1.10;;
5277;SDS011;2662;51.194;6.614;2022-10-16T02:47:24;0.80;;;0.80;;
5277;SDS011;2662;51.194;6.614;2022-10-16T02:49:51;1.67;;;0.77;;
5277;SDS011;2662;51.194;6.614;2022-10-16T02:52:17;0.80;;;0.80;;
5277;SDS011;2662;51.194;6.614;2022-10-16T02:54:44;0.83;;;0.80;;
5277;SDS011;2662;51.194;6.614;2022-10-16T02:57:11;3.33;;;0.80;;
5277;SDS011;2662;51.194;6.614;2022-10-16T02:59:37;1.57;;;0.80;;
5277;SDS011;2662;51.194;6.614;2022-10-16T03:02:05;1.13;;;0.73;;
5277;SDS011;2662;51.194;6.614;2022-10-16T03:04:32;10.43;;;0.97;;
5277;SDS011;2662;51.194;6.614;2022-10-16T03:06:59;1.00;;;1.00;;
5277;SDS011;2662;51.194;6.614;2022-10-16T03:09:25;2.20;;;1.10;;
5277;SDS011;2662;51.194;6.614;2022-10-16T03:11:52;3.53;;;1.10;;
5277;SDS011;2662;51.194;6.614;2022-10-16T03:14:19;2.20;;;0.90;;
5277;SDS011;2662;51.194;6.614;2022-10-16T03:16:46;1.97;;;1.07;;
5277;SDS011;2662;51.194;6.614;2022-10-16T03:19:15;1.30;;;1.20;;
5277;SDS011;2662;51.194;6.614;2022-10-16T03:21:42;1.20;;;1.10;;
5277;SDS011;2662;51.194;6.614;2022-10-16T03:24:09;1.60;;;1.20;;
5277;SDS011;2662;51.194;6.614;2022-10-16T03:26:36;1.77;;;1.30;;
5277;SDS011;2662;51.194;6.614;2022-10-16T03:29:03;1.97;;;1.40;;
5277;SDS011;2662;51.194;6.614;2022-10-16T03:31:30;3.63;;;1.30;;
5277;SDS011;2662;51.194;6.614;2022-10-16T03:33:57;1.47;;;1.17;;
5277;SDS011;2662;51.194;6.614;2022-10-16T03:36:25;9.00;;;0.97;;
5277;SDS011;2662;51.194;6.614;2022-10-16T03:38:51;2.20;;;1.07;;
5277;SDS011;2662;51.194;6.614;2022-10-16T03:41:18;1.23;;;1.00;;
5277;SDS011;2662;51.194;6.614;2022-10-16T03:43:45;0.80;;;0.80;;
5277;SDS011;2662;51.194;6.614;2022-10-16T03:46:11;1.20;;;1.00;;
5277;SDS011;2662;51.194;6.614;2022-10-16T03:48:38;3.27;;;0.90;;
5277;SDS011;2662;51.194;6.614;2022-10-16T03:51:05;0.80;;;0.73;;
5277;SDS011;2662;51.194;6.614;2022-10-16T03:53:33;2.63;;;0.90;;
5277;SDS011;2662;51.194;6.614;2022-10-16T03:56:00;1.67;;;0.70;;
5277;SDS011;2662;51.194;6.614;2022-10-16T03:58:33;3.50;;;1.03;;
5277;SDS011;2662;51.194;6.614;2022-10-16T04:00:59;0.80;;;0.80;;
5277;SDS011;2662;51.194;6.614;2022-10-16T04:03:26;4.00;;;0.80;;
5277;SDS011;2662;51.194;6.614;2022-10-16T04:05:53;1.93;;;1.17;;
5277;SDS011;2662;51.194;6.614;2022-10-16T04:08:20;2.30;;;0.80;;
5277;SDS011;2662;51.194;6.614;2022-10-16T04:10:48;1.77;;;0.87;;
5277;SDS011;2662;51.194;6.614;2022-10-16T04:13:15;1.07;;;0.80;;
5277;SDS011;2662;51.194;6.614;2022-10-16T04:15:42;2.87;;;1.23;;
5277;SDS011;2662;51.194;6.614;2022-10-16T04:18:10;4.53;;;1.10;;
5277;SDS011;2662;51.194;6.614;2022-10-16T04:20:37;2.00;;;1.00;;
5277;SDS011;2662;51.194;6.614;2022-10-16T04:23:04;2.30;;;1.07;;
5277;SDS011;2662;51.194;6.614;2022-10-16T04:25:30;1.57;;;1.00;;
5277;SDS011;2662;51.194;6.614;2022-10-16T04:27:58;8.60;;;1.30;;
5277;SDS011;2662;51.194;6.614;2022-10-16T04:30:25;0.90;;;0.90;;
5277;SDS011;2662;51.194;6.614;2022-10-16T04:32:52;3.53;;;1.20;;
5277;SDS011;2662;51.194;6.614;2022-10-16T04:35:20;1.13;;;0.90;;
5277;SDS011;2662;51.194;6.614;2022-10-16T04:37:47;0.90;;;0.90;;
5277;SDS011;2662;51.194;6.614;2022-10-16T04:40:14;8.43;;;1.00;;
5277;SDS011;2662;51.194;6.614;2022-10-16T04:42:41;9.40;;;1.17;;
5277;SDS011;2662;51.194;6.614;2022-10-16T04:45:09;2.20;;;0.83;;
5277;SDS011;2662;51.194;6.614;2022-10-16T04:47:36;2.70;;;1.10;;
5277;SDS011;2662;51.194;6.614;2022-10-16T04:50:03;1.57;;;0.90;;
5277;SDS011;2662;51.194;6.614;2022-10-16T04:52:31;2.97;;;1.30;;
5277;SDS011;2662;51.194;6.614;2022-10-16T04:54:57;2.00;;;1.03;;
5277;SDS011;2662;51.194;6.614;2022-10-16T04:57:26;1.80;;;1.10;;
5277;SDS011;2662;51.194;6.614;2022-10-16T04:59:54;6.17;;;1.53;;
5277;SDS011;2662;51.194;6.614;2022-10-16T05:02:22;2.93;;;1.20;;
5277;SDS011;2662;51.194;6.614;2022-10-16T05:04:48;2.50;;;1.20;;
5277;SDS011;2662;51.194;6.614;2022-10-16T05:07:15;6.93;;;1.40;;
5277;SDS011;2662;51.194;6.614;2022-10-16T05:09:42;1.10;;;1.10;;
5277;SDS011;2662;51.194;6.614;2022-10-16T05:12:08;2.20;;;1.20;;
5277;SDS011;2662;51.194;6.614;2022-10-16T05:14:35;2.53;;;1.50;;
5277;SDS011;2662;51.194;6.614;2022-10-16T05:17:02;1.27;;;1.17;;
5277;SDS011;2662;51.194;6.614;2022-10-16T05:19:30;1.47;;;1.40;;
5277;SDS011;2662;51.194;6.614;2022-10-16T05:21:57;1.17;;;0.97;;
5277;SDS011;2662;51.194;6.614;2022-10-16T05:24:24;2.17;;;1.17;;
5277;SDS011;2662;51.194;6.614;2022-10-16T05:26:50;1.40;;;1.20;;
5277;SDS011;2662;51.194;6.614;2022-10-16T05:29:17;2.20;;;1.60;;
5277;SDS011;2662;51.194;6.614;2022-10-16T05:31:44;2.30;;;1.50;;
5277;SDS011;2662;51.194;6.614;2022-10-16T05:34:11;1.50;;;1.37;;
5277;SDS011;2662;51.194;6.614;2022-10-16T05:36:39;1.57;;;1.47;;
5277;SDS011;2662;51.194;6.614;2022-10-16T05:39:05;3.07;;;1.80;;
5277;SDS011;2662;51.194;6.614;2022-10-16T05:41:32;1.57;;;1.33;;
5277;SDS011;2662;51.194;6.614;2022-10-16T05:43:59;1.50;;;1.40;;
5277;SDS011;2662;51.194;6.614;2022-10-16T05:46:25;4.00;;;1.30;;
5277;SDS011;2662;51.194;6.614;2022-10-16T05:48:52;1.57;;;1.20;;
5277;SDS011;2662;51.194;6.614;2022-10-16T05:51:19;1.37;;;1.27;;
5277;SDS011;2662;51.194;6.614;2022-10-16T05:53:47;4.20;;;1.97;;
5277;SDS011;2662;51.194;6.614;2022-10-16T05:56:13;1.73;;;1.10;;
5277;SDS011;2662;51.194;6.614;2022-10-16T05:58:41;3.30;;;1.37;;
5277;SDS011;2662;51.194;6.614;2022-10-16T06:01:09;1.40;;;1.30;;
5277;SDS011;2662;51.194;6.614;2022-10-16T06:03:38;3.83;;;1.40;;
5277;SDS011;2662;51.194;6.614;2022-10-16T06:06:11;1.47;;;1.40;;
5277;SDS011;2662;51.194;6.614;2022-10-16T06:08:39;3.83;;;1.30;;
5277;SDS011;2662;51.194;6.614;2022-10-16T06:11:12;4.20;;;1.53;;
5277;SDS011;2662;51.194;6.614;2022-10-16T06:13:41;1.60;;;1.50;;
5277;SDS011;2662;51.194;6.614;2022-10-16T06:16:08;4.50;;;1.50;;
5277;SDS011;2662;51.194;6.614;2022-10-16T06:18:35;4.33;;;1.70;;
5277;SDS011;2662;51.194;6.614;2022-10-16T06:21:06;2.20;;;1.40;;
5277;SDS011;2662;51.194;6.614;2022-10-16T06:23:34;2.80;;;1.30;;
5277;SDS011;2662;51.194;6.614;2022-10-16T06:26:04;2.50;;;1.70;;
5277;SDS011;2662;51.194;6.614;2022-10-16T06:28:33;4.00;;;1.50;;
5277;SDS011;2662;51.194;6.614;2022-10-16T06:31:00;1.80;;;1.70;;
5277;SDS011;2662;51.194;6.614;2022-10-16T06:33:27;2.23;;;1.40;;
5277;SDS011;2662;51.194;6.614;2022-10-16T06:35:53;4.63;;;1.53;;
5277;SDS011;2662;51.194;6.614;2022-10-16T06:38:25;2.90;;;1.60;;
5277;SDS011;2662;51.194;6.614;2022-10-16T06:40:53;1.33;;;1.13;;
5277;SDS011;2662;51.194;6.614;2022-10-16T06:43:19;1.50;;;1.40;;
5277;SDS011;2662;51.194;6.614;2022-10-16T06:45:51;3.63;;;1.40;;
5277;SDS011;2662;51.194;6.614;2022-10-16T06:48:18;1.53;;;1.30;;
5277;SDS011;2662;51.194;6.614;2022-10-16T06:50:54;1.40;;;1.10;;
5277;SDS011;2662;51.194;6.614;2022-10-16T06:53:22;5.23;;;1.03;;
5277;SDS011;2662;51.194;6.614;2022-10-16T06:55:49;1.20;;;1.10;;
5277;SDS011;2662;51.194;6.614;2022-10-16T06:58:15;7.50;;;1.10;;
5277;SDS011;2662;51.194;6.614;2022-10-16T07:00:42;2.47;;;1.27;;
5277;SDS011;2662;51.194;6.614;2022-10-16T07:03:10;2.20;;;1.30;;
5277;SDS011;2662;51.194;6.614;2022-10-16T07:05:37;1.73;;;1.47;;
5277;SDS011;2662;51.194;6.614;2022-10-16T07:08:04;1.30;;;1.20;;
5277;SDS011;2662;51.194;6.614;2022-10-16T07:10:31;2.63;;;1.10;;
5277;SDS011;2662;51.194;6.614;2022-10-16T07:12:58;1.33;;;1.10;;
5277;SDS011;2662;51.194;6.614;2022-10-16T07:15:25;1.43;;;1.00;;
5277;SDS011;2662;51.194;6.614;2022-10-16T07:17:52;1.13;;;1.07;;
5277;SDS011;2662;51.194;6.614;2022-10-16T07:20:20;4.57;;;1.37;;
5277;SDS011;2662;51.194;6.614;2022-10-16T07:22:47;8.63;;;1.87;;
5277;SDS011;2662;51.194;6.614;2022-10-16T07:25:14;1.80;;;1.70;;
5277;SDS011;2662;51.194;6.614;2022-10-16T07:27:40;8.13;;;1.60;;
5277;SDS011;2662;51.194;6.614;2022-10-16T07:30:07;1.20;;;1.20;;
5277;SDS011;2662;51.194;6.614;2022-10-16T07:32:35;2.50;;;1.30;;
5277;SDS011;2662;51.194;6.614;2022-10-16T07:35:01;16.20;;;1.80;;
5277;SDS011;2662;51.194;6.614;2022-10-16T07:37:30;8.67;;;1.50;;
5277;SDS011;2662;51.194;6.614;2022-10-16T07:39:56;1.70;;;1.27;;
5277;SDS011;2662;51.194;6.614;2022-10-16T07:42:23;2.60;;;1.30;;
5277;SDS011;2662;51.194;6.614;2022-10-16T07:44:50;4.23;;;1.23;;
5277;SDS011;2662;51.194;6.614;2022-10-16T07:47:16;2.17;;;1.30;;
5277;SDS011;2662;51.194;6.614;2022-10-16T07:49:43;3.03;;;1.20;;
5277;SDS011;2662;51.194;6.614;2022-10-16T07:52:10;1.67;;;1.03;;
5277;SDS011;2662;51.194;6.614;2022-10-16T07:54:38;6.00;;;1.60;;
5277;SDS011;2662;51.194;6.614;2022-10-16T07:57:04;1.10;;;1.00;;
5277;SDS011;2662;51.194;6.614;2022-10-16T07:59:31;7.97;;;1.27;;
5277;SDS011;2662;51.194;6.614;2022-10-16T08:01:58;3.70;;;1.00;;
5277;SDS011;2662;51.194;6.614;2022-10-16T08:04:24;4.17;;;1.30;;
5277;SDS011;2662;51.194;6.614;2022-10-16T08:06:51;6.63;;;1.13;;
5277;SDS011;2662;51.194;6.614;2022-10-16T08:09:19;4.00;;;1.00;;
5277;SDS011;2662;51.194;6.614;2022-10-16T08:11:47;3.70;;;0.90;;
5277;SDS011;2662;51.194;6.614;2022-10-16T08:14:14;2.40;;;1.07;;
5277;SDS011;2662;51.194;6.614;2022-10-16T08:16:40;1.10;;;1.00;;
5277;SDS011;2662;51.194;6.614;2022-10-16T08:19:07;2.07;;;0.90;;
5277;SDS011;2662;51.194;6.614;2022-10-16T08:21:34;3.00;;;0.90;;
5277;SDS011;2662;51.194;6.614;2022-10-16T08:24:01;2.60;;;1.10;;
5277;SDS011;2662;51.194;6.614;2022-10-16T08:26:27;1.00;;;1.00;;
5277;SDS011;2662;51.194;6.614;2022-10-16T08:28:57;4.20;;;1.03;;
5277;SDS011;2662;51.194;6.614;2022-10-16T08:31:23;2.57;;;1.00;;
5277;SDS011;2662;51.194;6.614;2022-10-16T08:33:51;8.10;;;1.10;;
5277;SDS011;2662;51.194;6.614;2022-10-16T08:36:17;9.90;;;1.33;;
5277;SDS011;2662;51.194;6.614;2022-10-16T08:38:47;0.83;;;0.83;;
5277;SDS011;2662;51.194;6.614;2022-10-16T08:41:19;1.63;;;0.70;;
5277;SDS011;2662;51.194;6.614;2022-10-16T08:44:03;0.70;;;0.70;;
5277;SDS011;2662;51.194;6.614;2022-10-16T08:46:51;3.27;;;1.00;;
5277;SDS011;2662;51.194;6.614;2022-10-16T08:49:21;2.20;;;1.20;;
5277;SDS011;2662;51.194;6.614;2022-10-16T08:51:49;2.80;;;0.90;;
5277;SDS011;2662;51.194;6.614;2022-10-16T08:54:21;3.73;;;0.77;;
5277;SDS011;2662;51.194;6.614;2022-10-16T08:56:54;4.33;;;0.90;;
5277;SDS011;2662;51.194;6.614;2022-10-16T08:59:23;5.77;;;1.00;;
5277;SDS011;2662;51.194;6.614;2022-10-16T09:01:50;3.63;;;0.93;;
5277;SDS011;2662;51.194;6.614;2022-10-16T09:04:24;1.90;;;0.80;;
5277;SDS011;2662;51.194;6.614;2022-10-16T09:07:09;1.20;;;0.80;;
5277;SDS011;2662;51.194;6.614;2022-10-16T09:09:52;5.87;;;1.27;;
5277;SDS011;2662;51.194;6.614;2022-10-16T09:12:28;4.23;;;0.80;;
5277;SDS011;2662;51.194;6.614;2022-10-16T09:15:07;9.13;;;1.10;;
5277;SDS011;2662;51.194;6.614;2022-10-16T09:17:45;8.73;;;1.17;;
5277;SDS011;2662;51.194;6.614;2022-10-16T09:20:29;2.97;;;0.90;;
5277;SDS011;2662;51.194;6.614;2022-10-16T09:25:43;4.10;;;0.70;;
5277;SDS011;2662;51.194;6.614;2022-10-16T09:28:16;0.90;;;0.70;;
5277;SDS011;2662;51.194;6.614;2022-10-16T09:30:45;0.90;;;0.90;;
5277;SDS011;2662;51.194;6.614;2022-10-16T09:33:13;0.80;;;0.80;;
5277;SDS011;2662;51.194;6.614;2022-10-16T09:35:42;4.00;;;1.77;;
5277;SDS011;2662;51.194;6.614;2022-10-16T09:38:20;1.10;;;0.63;;
5277;SDS011;2662;51.194;6.614;2022-10-16T09:40:48;2.43;;;0.90;;
5277;SDS011;2662;51.194;6.614;2022-10-16T09:43:22;3.40;;;0.93;;
5277;SDS011;2662;51.194;6.614;2022-10-16T09:45:54;3.40;;;1.00;;
5277;SDS011;2662;51.194;6.614;2022-10-16T09:48:23;2.50;;;0.70;;
5277;SDS011;2662;51.194;6.614;2022-10-16T09:50:56;1.63;;;0.70;;
5277;SDS011;2662;51.194;6.614;2022-10-16T09:53:23;6.10;;;1.10;;
5277;SDS011;2662;51.194;6.614;2022-10-16T09:55:50;4.60;;;0.90;;
5277;SDS011;2662;51.194;6.614;2022-10-16T09:58:18;1.40;;;0.80;;
5277;SDS011;2662;51.194;6.614;2022-10-16T10:00:50;3.10;;;0.80;;
5277;SDS011;2662;51.194;6.614;2022-10-16T10:03:33;2.20;;;0.80;;
5277;SDS011;2662;51.194;6.614;2022-10-16T10:06:03;2.83;;;0.97;;
5277;SDS011;2662;51.194;6.614;2022-10-16T10:08:40;3.37;;;0.80;;
5277;SDS011;2662;51.194;6.614;2022-10-16T10:11:07;2.50;;;0.83;;
5277;SDS011;2662;51.194;6.614;2022-10-16T10:13:34;3.70;;;0.87;;
5277;SDS011;2662;51.194;6.614;2022-10-16T10:16:01;0.80;;;0.70;;
5277;SDS011;2662;51.194;6.614;2022-10-16T10:18:27;1.47;;;0.73;;
5277;SDS011;2662;51.194;6.614;2022-10-16T10:20:58;1.07;;;0.80;;
5277;SDS011;2662;51.194;6.614;2022-10-16T10:23:27;2.20;;;0.93;;
5277;SDS011;2662;51.194;6.614;2022-10-16T10:25:56;6.53;;;0.93;;
5277;SDS011;2662;51.194;6.614;2022-10-16T10:28:40;5.47;;;1.00;;
5277;SDS011;2662;51.194;6.614;2022-10-16T10:31:21;1.97;;;0.90;;
5277;SDS011;2662;51.194;6.614;2022-10-16T10:33:54;6.03;;;1.00;;
5277;SDS011;2662;51.194;6.614;2022-10-16T10:36:30;1.73;;;0.80;;
5277;SDS011;2662;51.194;6.614;2022-10-16T10:39:00;7.20;;;0.87;;
5277;SDS011;2662;51.194;6.614;2022-10-16T10:41:38;11.27;;;1.27;;
5277;SDS011;2662;51.194;6.614;2022-10-16T10:44:27;2.17;;;0.90;;
5277;SDS011;2662;51.194;6.614;2022-10-16T10:47:05;3.37;;;0.80;;
5277;SDS011;2662;51.194;6.614;2022-10-16T10:49:43;1.83;;;0.90;;
5277;SDS011;2662;51.194;6.614;2022-10-16T10:52:30;1.33;;;0.70;;
5277;SDS011;2662;51.194;6.614;2022-10-16T10:55:12;1.53;;;0.83;;
5277;SDS011;2662;51.194;6.614;2022-10-16T10:57:53;2.40;;;0.90;;
5277;SDS011;2662;51.194;6.614;2022-10-16T11:00:45;3.20;;;0.80;;
5277;SDS011;2662;51.194;6.614;2022-10-16T11:03:24;1.93;;;0.90;;
5277;SDS011;2662;51.194;6.614;2022-10-16T11:06:02;1.90;;;0.90;;
5277;SDS011;2662;51.194;6.614;2022-10-16T11:08:34;1.57;;;0.80;;
5277;SDS011;2662;51.194;6.614;2022-10-16T11:11:04;1.47;;;0.70;;
5277;SDS011;2662;51.194;6.614;2022-10-16T11:13:35;2.47;;;0.80;;
5277;SDS011;2662;51.194;6.614;2022-10-16T11:16:08;1.07;;;0.70;;
5277;SDS011;2662;51.194;6.614;2022-10-16T11:18:42;1.73;;;0.80;;
5277;SDS011;2662;51.194;6.614;2022-10-16T11:21:16;4.53;;;0.60;;
5277;SDS011;2662;51.194;6.614;2022-10-16T11:23:48;1.73;;;0.63;;
5277;SDS011;2662;51.194;6.614;2022-10-16T11:26:20;1.93;;;0.80;;
5277;SDS011;2662;51.194;6.614;2022-10-16T11:28:51;1.10;;;0.80;;
5277;SDS011;2662;51.194;6.614;2022-10-16T11:31:22;1.90;;;0.60;;
5277;SDS011;2662;51.194;6.614;2022-10-16T11:33:54;5.10;;;1.00;;
5277;SDS011;2662;51.194;6.614;2022-10-16T11:36:27;5.67;;;0.77;;
5277;SDS011;2662;51.194;6.614;2022-10-16T11:39:03;1.73;;;0.90;;
5277;SDS011;2662;51.194;6.614;2022-10-16T11:41:37;3.03;;;0.90;;
5277;SDS011;2662;51.194;6.614;2022-10-16T11:44:14;6.20;;;0.90;;
5277;SDS011;2662;51.194;6.614;2022-10-16T11:46:50;6.07;;;1.10;;
5277;SDS011;2662;51.194;6.614;2022-10-16T11:49:25;1.37;;;0.60;;
5277;SDS011;2662;51.194;6.614;2022-10-16T11:51:56;3.50;;;0.80;;
5277;SDS011;2662;51.194;6.614;2022-10-16T11:54:34;4.43;;;0.70;;
5277;SDS011;2662;51.194;6.614;2022-10-16T11:57:08;2.83;;;0.67;;
5277;SDS011;2662;51.194;6.614;2022-10-16T11:59:41;3.00;;;0.63;;
5277;SDS011;2662;51.194;6.614;2022-10-16T12:02:27;3.40;;;1.17;;
5277;SDS011;2662;51.194;6.614;2022-10-16T12:05:05;3.47;;;0.67;;
5277;SDS011;2662;51.194;6.614;2022-10-16T12:07:41;1.30;;;0.60;;
5277;SDS011;2662;51.194;6.614;2022-10-16T12:10:22;3.70;;;0.80;;
5277;SDS011;2662;51.194;6.614;2022-10-16T12:12:50;1.63;;;0.70;;
5277;SDS011;2662;51.194;6.614;2022-10-16T12:15:19;3.23;;;1.03;;
5277;SDS011;2662;51.194;6.614;2022-10-16T12:17:48;0.80;;;0.63;;
5277;SDS011;2662;51.194;6.614;2022-10-16T12:20:21;2.30;;;0.80;;
5277;SDS011;2662;51.194;6.614;2022-10-16T12:22:53;2.37;;;0.70;;
5277;SDS011;2662;51.194;6.614;2022-10-16T12:25:24;1.87;;;0.83;;
5277;SDS011;2662;51.194;6.614;2022-10-16T12:27:53;2.20;;;0.87;;
5277;SDS011;2662;51.194;6.614;2022-10-16T12:30:22;2.33;;;0.70;;
5277;SDS011;2662;51.194;6.614;2022-10-16T12:32:53;1.50;;;0.83;;
5277;SDS011;2662;51.194;6.614;2022-10-16T12:35:22;2.90;;;0.73;;
5277;SDS011;2662;51.194;6.614;2022-10-16T12:37:51;1.83;;;0.70;;
5277;SDS011;2662;51.194;6.614;2022-10-16T12:40:29;1.50;;;0.90;;
5277;SDS011;2662;51.194;6.614;2022-10-16T12:42:58;3.00;;;0.53;;
5277;SDS011;2662;51.194;6.614;2022-10-16T12:45:36;2.83;;;0.70;;
5277;SDS011;2662;51.194;6.614;2022-10-16T12:48:04;1.03;;;0.70;;
5277;SDS011;2662;51.194;6.614;2022-10-16T12:50:45;2.50;;;0.70;;
5277;SDS011;2662;51.194;6.614;2022-10-16T12:53:18;1.70;;;0.90;;
5277;SDS011;2662;51.194;6.614;2022-10-16T12:55:51;1.57;;;0.80;;
5277;SDS011;2662;51.194;6.614;2022-10-16T12:58:32;1.80;;;0.70;;
5277;SDS011;2662;51.194;6.614;2022-10-16T13:01:29;1.50;;;0.80;;
5277;SDS011;2662;51.194;6.614;2022-10-16T13:04:15;2.40;;;0.90;;
5277;SDS011;2662;51.194;6.614;2022-10-16T13:06:59;1.20;;;0.80;;
5277;SDS011;2662;51.194;6.614;2022-10-16T13:09:43;1.90;;;0.77;;
5277;SDS011;2662;51.194;6.614;2022-10-16T13:12:24;1.20;;;0.70;;
5277;SDS011;2662;51.194;6.614;2022-10-16T13:15:16;3.13;;;0.53;;
5277;SDS011;2662;51.194;6.614;2022-10-16T13:17:52;1.10;;;0.67;;
5277;SDS011;2662;51.194;6.614;2022-10-16T13:20:28;1.43;;;0.67;;
5277;SDS011;2662;51.194;6.614;2022-10-16T13:23:03;5.50;;;0.70;;
5277;SDS011;2662;51.194;6.614;2022-10-16T13:25:43;2.70;;;0.87;;
5277;SDS011;2662;51.194;6.614;2022-10-16T13:28:21;2.87;;;0.90;;
5277;SDS011;2662;51.194;6.614;2022-10-16T13:30:51;3.53;;;0.60;;
5277;SDS011;2662;51.194;6.614;2022-10-16T13:33:19;1.83;;;0.70;;
5277;SDS011;2662;51.194;6.614;2022-10-16T13:35:52;1.13;;;0.50;;
5277;SDS011;2662;51.194;6.614;2022-10-16T13:38:21;1.10;;;0.60;;
5277;SDS011;2662;51.194;6.614;2022-10-16T13:40:51;1.53;;;0.50;;
5277;SDS011;2662;51.194;6.614;2022-10-16T13:43:22;0.80;;;0.60;;
5277;SDS011;2662;51.194;6.614;2022-10-16T13:45:52;0.60;;;0.50;;
5277;SDS011;2662;51.194;6.614;2022-10-16T13:48:20;2.63;;;0.87;;
5277;SDS011;2662;51.194;6.614;2022-10-16T13:50:57;1.40;;;0.60;;
5277;SDS011;2662;51.194;6.614;2022-10-16T13:53:25;2.27;;;0.60;;
5277;SDS011;2662;51.194;6.614;2022-10-16T13:55:51;2.90;;;0.60;;
5277;SDS011;2662;51.194;6.614;2022-10-16T13:58:18;1.97;;;0.60;;
5277;SDS011;2662;51.194;6.614;2022-10-16T14:00:54;1.13;;;0.50;;
5277;SDS011;2662;51.194;6.614;2022-10-16T14:03:23;2.53;;;0.70;;
5277;SDS011;2662;51.194;6.614;2022-10-16T14:05:51;1.43;;;0.60;;
5277;SDS011;2662;51.194;6.614;2022-10-16T14:08:19;1.80;;;0.63;;
5277;SDS011;2662;51.194;6.614;2022-10-16T14:10:47;0.60;;;0.53;;
5277;SDS011;2662;51.194;6.614;2022-10-16T14:13:17;1.77;;;0.60;;
5277;SDS011;2662;51.194;6.614;2022-10-16T14:15:46;2.43;;;0.63;;
5277;SDS011;2662;51.194;6.614;2022-10-16T14:18:18;1.10;;;0.50;;
5277;SDS011;2662;51.194;6.614;2022-10-16T14:20:46;2.30;;;0.70;;
5277;SDS011;2662;51.194;6.614;2022-10-16T14:23:19;2.33;;;0.70;;
5277;SDS011;2662;51.194;6.614;2022-10-16T14:25:48;0.70;;;0.60;;
5277;SDS011;2662;51.194;6.614;2022-10-16T14:28:16;1.53;;;0.70;;
5277;SDS011;2662;51.194;6.614;2022-10-16T14:30:50;1.77;;;0.53;;
5277;SDS011;2662;51.194;6.614;2022-10-16T14:33:21;1.67;;;0.70;;
5277;SDS011;2662;51.194;6.614;2022-10-16T14:36:00;4.40;;;0.60;;
5277;SDS011;2662;51.194;6.614;2022-10-16T14:38:29;16.20;;;1.00;;
5277;SDS011;2662;51.194;6.614;2022-10-16T14:40:57;0.97;;;0.73;;
5277;SDS011;2662;51.194;6.614;2022-10-16T14:43:27;2.63;;;0.70;;
5277;SDS011;2662;51.194;6.614;2022-10-16T14:45:58;2.23;;;0.90;;
5277;SDS011;2662;51.194;6.614;2022-10-16T14:48:27;0.90;;;0.70;;
5277;SDS011;2662;51.194;6.614;2022-10-16T14:50:54;3.23;;;0.83;;
5277;SDS011;2662;51.194;6.614;2022-10-16T14:53:21;2.80;;;1.00;;
5277;SDS011;2662;51.194;6.614;2022-10-16T14:55:48;6.27;;;1.30;;
5277;SDS011;2662;51.194;6.614;2022-10-16T14:58:15;4.00;;;0.93;;
5277;SDS011;2662;51.194;6.614;2022-10-16T15:00:43;2.30;;;0.67;;
5277;SDS011;2662;51.194;6.614;2022-10-16T15:03:10;5.20;;;0.97;;
5277;SDS011;2662;51.194;6.614;2022-10-16T15:05:38;2.20;;;0.80;;
5277;SDS011;2662;51.194;6.614;2022-10-16T15:08:05;3.60;;;0.70;;
5277;SDS011;2662;51.194;6.614;2022-10-16T15:10:33;2.40;;;0.70;;
5277;SDS011;2662;51.194;6.614;2022-10-16T15:13:04;0.93;;;0.70;;
5277;SDS011;2662;51.194;6.614;2022-10-16T15:15:33;0.93;;;0.60;;
5277;SDS011;2662;51.194;6.614;2022-10-16T15:18:01;1.83;;;0.70;;
5277;SDS011;2662;51.194;6.614;2022-10-16T15:20:29;4.93;;;0.80;;
5277;SDS011;2662;51.194;6.614;2022-10-16T15:23:00;2.07;;;0.90;;
5277;SDS011;2662;51.194;6.614;2022-10-16T15:25:30;3.67;;;0.90;;
5277;SDS011;2662;51.194;6.614;2022-10-16T15:27:59;1.23;;;1.13;;
5277;SDS011;2662;51.194;6.614;2022-10-16T15:30:27;1.57;;;0.77;;
5277;SDS011;2662;51.194;6.614;2022-10-16T15:32:54;0.90;;;0.80;;
5277;SDS011;2662;51.194;6.614;2022-10-16T15:35:21;0.93;;;0.73;;
5277;SDS011;2662;51.194;6.614;2022-10-16T15:37:48;2.83;;;0.93;;